sensor_id;sensor_type;location;lat;lon;timestamp;pressure;altitude;pressure_sealevel;temperature;humidity
74790;BME280;63318;52.406;13.416;2023-07-29T00:00:18;100469.92;;;17.63;82.61
74790;BME280;63318;52.406;13.416;2023-07-29T00:02:46;100471.44;;;17.60;82.59
74790;BME280;63318;52.406;13.416;2023-07-29T00:05:15;100471.95;;;17.56;82.60
74790;BME280;63318;52.406;13.416;2023-07-29T00:07:43;100469.02;;;17.52;82.60
74790;BME280;63318;52.406;13.416;2023-07-29T00:10:11;100470.84;;;17.49;82.63
74790;BME280;63318;52.406;13.416;2023-07-29T00:12:39;100471.66;;;17.46;82.55
74790;BME280;63318;52.406;13.416;2023-07-29T00:15:09;100470.10;;;17.42;82.55
74790;BME280;63318;52.406;13.416;2023-07-29T00:17:38;100468.48;;;17.38;82.67
74790;BME280;63318;52.406;13.416;2023-07-29T00:20:08;100468.08;;;17.34;82.53
74790;BME280;63318;52.406;13.416;2023-07-29T00:22:36;100469.05;;;17.31;82.62
74790;BME280;63318;52.406;13.416;2023-07-29T00:25:05;100468.64;;;17.28;82.74
74790;BME280;63318;52.406;13.416;2023-07-29T00:27:33;100464.08;;;17.25;82.66
74790;BME280;63318;52.406;13.416;2023-07-29T00:30:01;100462.15;;;17.22;82.74
74790;BME280;63318;52.406;13.416;2023-07-29T00:32:30;100461.17;;;17.18;82.82
74790;BME280;63318;52.406;13.416;2023-07-29T00:34:59;100455.02;;;17.16;82.77
74790;BME280;63318;52.406;13.416;2023-07-29T00:37:27;100459.28;;;17.13;82.83
74790;BME280;63318;52.406;13.416;2023-07-29T00:39:55;100455.82;;;17.10;82.70
74790;BME280;63318;52.406;13.416;2023-07-29T00:42:23;100455.76;;;17.06;82.70
74790;BME280;63318;52.406;13.416;2023-07-29T00:44:51;100462.18;;;17.04;82.74
74790;BME280;63318;52.406;13.416;2023-07-29T00:47:20;100464.01;;;17.00;82.88
74790;BME280;63318;52.406;13.416;2023-07-29T00:49:50;100460.23;;;16.97;82.82
74790;BME280;63318;52.406;13.416;2023-07-29T00:52:19;100453.80;;;16.94;82.78
74790;BME280;63318;52.406;13.416;2023-07-29T00:54:47;100456.60;;;16.90;82.83
74790;BME280;63318;52.406;13.416;2023-07-29T00:57:16;100457.91;;;16.88;82.90
74790;BME280;63318;52.406;13.416;2023-07-29T00:59:45;100453.86;;;16.84;82.87
74790;BME280;63318;52.406;13.416;2023-07-29T01:02:13;100450.94;;;16.80;82.84
74790;BME280;63318;52.406;13.416;2023-07-29T01:04:42;100446.47;;;16.77;82.93
74790;BME280;63318;52.406;13.416;2023-07-29T01:07:23;100443.27;;;16.74;82.92
74790;BME280;63318;52.406;13.416;2023-07-29T01:10:00;100440.37;;;16.71;82.94
74790;BME280;63318;52.406;13.416;2023-07-29T01:12:36;100435.57;;;16.68;82.94
74790;BME280;63318;52.406;13.416;2023-07-29T01:15:13;100432.13;;;16.64;82.93
74790;BME280;63318;52.406;13.416;2023-07-29T01:17:47;100429.63;;;16.61;82.96
74790;BME280;63318;52.406;13.416;2023-07-29T01:20:17;100421.54;;;16.58;82.96
74790;BME280;63318;52.406;13.416;2023-07-29T01:22:47;100418.02;;;16.55;83.08
74790;BME280;63318;52.406;13.416;2023-07-29T01:25:16;100413.65;;;16.53;83.06
74790;BME280;63318;52.406;13.416;2023-07-29T01:27:45;100408.38;;;16.51;82.96
74790;BME280;63318;52.406;13.416;2023-07-29T01:30:14;100412.17;;;16.48;83.12
74790;BME280;63318;52.406;13.416;2023-07-29T01:32:45;100413.06;;;16.47;83.23
74790;BME280;63318;52.406;13.416;2023-07-29T01:35:23;100416.35;;;16.46;83.31
74790;BME280;63318;52.406;13.416;2023-07-29T01:37:55;100413.41;;;16.44;83.41
74790;BME280;63318;52.406;13.416;2023-07-29T01:40:27;100414.94;;;16.43;83.51
74790;BME280;63318;52.406;13.416;2023-07-29T01:42:56;100415.66;;;16.42;83.48
74790;BME280;63318;52.406;13.416;2023-07-29T01:45:26;100415.42;;;16.40;83.53
74790;BME280;63318;52.406;13.416;2023-07-29T01:47:54;100413.08;;;16.38;83.36
74790;BME280;63318;52.406;13.416;2023-07-29T01:50:22;100423.84;;;16.36;83.40
74790;BME280;63318;52.406;13.416;2023-07-29T01:52:50;100428.27;;;16.33;83.43
74790;BME280;63318;52.406;13.416;2023-07-29T01:55:19;100422.46;;;16.31;83.38
74790;BME280;63318;52.406;13.416;2023-07-29T01:57:47;100421.65;;;16.29;83.44
74790;BME280;63318;52.406;13.416;2023-07-29T02:00:16;100423.89;;;16.28;83.61
74790;BME280;63318;52.406;13.416;2023-07-29T02:02:44;100424.44;;;16.26;83.58
74790;BME280;63318;52.406;13.416;2023-07-29T02:05:12;100421.19;;;16.24;83.50
74790;BME280;63318;52.406;13.416;2023-07-29T02:07:40;100425.12;;;16.21;83.63
74790;BME280;63318;52.406;13.416;2023-07-29T02:10:10;100429.59;;;16.19;83.64
74790;BME280;63318;52.406;13.416;2023-07-29T02:12:38;100431.73;;;16.17;83.45
74790;BME280;63318;52.406;13.416;2023-07-29T02:15:08;100430.61;;;16.15;83.57
74790;BME280;63318;52.406;13.416;2023-07-29T02:17:37;100426.08;;;16.12;83.55
74790;BME280;63318;52.406;13.416;2023-07-29T02:20:07;100431.64;;;16.10;83.52
74790;BME280;63318;52.406;13.416;2023-07-29T02:22:35;100434.95;;;16.07;83.53
74790;BME280;63318;52.406;13.416;2023-07-29T02:25:04;100434.90;;;16.05;83.48
74790;BME280;63318;52.406;13.416;2023-07-29T02:27:32;100436.23;;;16.03;83.51
74790;BME280;63318;52.406;13.416;2023-07-29T02:30:01;100436.79;;;16.01;83.52
74790;BME280;63318;52.406;13.416;2023-07-29T02:32:29;100433.35;;;16.00;83.58
74790;BME280;63318;52.406;13.416;2023-07-29T02:34:57;100432.60;;;15.98;83.58
74790;BME280;63318;52.406;13.416;2023-07-29T02:37:25;100433.31;;;15.96;83.78
74790;BME280;63318;52.406;13.416;2023-07-29T02:39:53;100435.05;;;15.94;83.83
74790;BME280;63318;52.406;13.416;2023-07-29T02:42:22;100427.19;;;15.92;83.85
74790;BME280;63318;52.406;13.416;2023-07-29T02:44:50;100423.86;;;15.90;83.96
74790;BME280;63318;52.406;13.416;2023-07-29T02:47:18;100423.67;;;15.89;83.90
74790;BME280;63318;52.406;13.416;2023-07-29T02:49:47;100421.46;;;15.88;84.03
74790;BME280;63318;52.406;13.416;2023-07-29T02:52:15;100420.29;;;15.88;84.14
74790;BME280;63318;52.406;13.416;2023-07-29T02:54:43;100420.25;;;15.87;84.11
74790;BME280;63318;52.406;13.416;2023-07-29T02:57:13;100425.66;;;15.86;84.20
74790;BME280;63318;52.406;13.416;2023-07-29T02:59:41;100427.92;;;15.85;84.20
74790;BME280;63318;52.406;13.416;2023-07-29T03:02:09;100428.50;;;15.84;84.14
74790;BME280;63318;52.406;13.416;2023-07-29T03:04:37;100423.88;;;15.83;84.17
74790;BME280;63318;52.406;13.416;2023-07-29T03:07:06;100429.35;;;15.82;84.15
74790;BME280;63318;52.406;13.416;2023-07-29T03:09:34;100428.15;;;15.81;84.26
74790;BME280;63318;52.406;13.416;2023-07-29T03:12:02;100427.00;;;15.79;84.12
74790;BME280;63318;52.406;13.416;2023-07-29T03:14:30;100426.52;;;15.78;84.19
74790;BME280;63318;52.406;13.416;2023-07-29T03:16:59;100433.90;;;15.76;84.16
74790;BME280;63318;52.406;13.416;2023-07-29T03:19:29;100432.64;;;15.75;84.28
74790;BME280;63318;52.406;13.416;2023-07-29T03:21:58;100426.91;;;15.74;84.28
74790;BME280;63318;52.406;13.416;2023-07-29T03:24:26;100422.20;;;15.73;84.23
74790;BME280;63318;52.406;13.416;2023-07-29T03:26:54;100421.83;;;15.74;84.37
74790;BME280;63318;52.406;13.416;2023-07-29T03:29:22;100422.94;;;15.73;84.38
74790;BME280;63318;52.406;13.416;2023-07-29T03:31:50;100419.41;;;15.73;84.47
74790;BME280;63318;52.406;13.416;2023-07-29T03:34:19;100415.27;;;15.73;84.52
74790;BME280;63318;52.406;13.416;2023-07-29T03:36:47;100419.64;;;15.73;84.70
74790;BME280;63318;52.406;13.416;2023-07-29T03:39:15;100425.63;;;15.73;84.68
74790;BME280;63318;52.406;13.416;2023-07-29T03:41:43;100426.09;;;15.73;84.70
74790;BME280;63318;52.406;13.416;2023-07-29T03:44:11;100422.17;;;15.73;84.74
74790;BME280;63318;52.406;13.416;2023-07-29T03:46:40;100420.81;;;15.73;84.92
74790;BME280;63318;52.406;13.416;2023-07-29T03:49:08;100420.30;;;15.73;84.95
74790;BME280;63318;52.406;13.416;2023-07-29T03:51:36;100420.73;;;15.74;84.81
74790;BME280;63318;52.406;13.416;2023-07-29T03:54:04;100423.45;;;15.75;84.77
74790;BME280;63318;52.406;13.416;2023-07-29T03:56:33;100420.52;;;15.76;84.89
74790;BME280;63318;52.406;13.416;2023-07-29T03:59:05;100415.13;;;15.77;84.88
74790;BME280;63318;52.406;13.416;2023-07-29T04:01:33;100408.92;;;15.79;84.90
74790;BME280;63318;52.406;13.416;2023-07-29T04:04:01;100406.35;;;15.80;85.01
74790;BME280;63318;52.406;13.416;2023-07-29T04:06:30;100407.37;;;15.83;84.97
74790;BME280;63318;52.406;13.416;2023-07-29T04:08:58;100406.86;;;15.85;84.97
74790;BME280;63318;52.406;13.416;2023-07-29T04:11:26;100406.35;;;15.87;84.97
74790;BME280;63318;52.406;13.416;2023-07-29T04:13:54;100400.86;;;15.89;85.05
74790;BME280;63318;52.406;13.416;2023-07-29T04:16:22;100398.52;;;15.92;85.06
74790;BME280;63318;52.406;13.416;2023-07-29T04:18:51;100403.77;;;15.94;85.12
74790;BME280;63318;52.406;13.416;2023-07-29T04:21:19;100400.45;;;15.97;85.24
74790;BME280;63318;52.406;13.416;2023-07-29T04:23:47;100396.98;;;15.99;85.36
74790;BME280;63318;52.406;13.416;2023-07-29T04:26:16;100393.97;;;16.01;85.30
74790;BME280;63318;52.406;13.416;2023-07-29T04:28:44;100393.67;;;16.04;85.40
74790;BME280;63318;52.406;13.416;2023-07-29T04:31:12;100397.48;;;16.06;85.46
74790;BME280;63318;52.406;13.416;2023-07-29T04:33:40;100399.67;;;16.08;85.38
74790;BME280;63318;52.406;13.416;2023-07-29T04:36:09;100402.96;;;16.09;85.33
74790;BME280;63318;52.406;13.416;2023-07-29T04:38:38;100405.64;;;16.12;85.44
74790;BME280;63318;52.406;13.416;2023-07-29T04:41:07;100408.16;;;16.14;85.58
74790;BME280;63318;52.406;13.416;2023-07-29T04:43:35;100407.67;;;16.15;85.49
74790;BME280;63318;52.406;13.416;2023-07-29T04:46:05;100410.72;;;16.17;85.46
74790;BME280;63318;52.406;13.416;2023-07-29T04:48:34;100412.45;;;16.19;85.59
74790;BME280;63318;52.406;13.416;2023-07-29T04:51:02;100404.30;;;16.22;85.64
74790;BME280;63318;52.406;13.416;2023-07-29T04:53:30;100403.59;;;16.27;85.66
74790;BME280;63318;52.406;13.416;2023-07-29T04:55:58;100404.29;;;16.33;85.93
74790;BME280;63318;52.406;13.416;2023-07-29T04:58:26;100400.52;;;16.38;85.88
74790;BME280;63318;52.406;13.416;2023-07-29T05:00:54;100402.55;;;16.44;86.03
74790;BME280;63318;52.406;13.416;2023-07-29T05:03:23;100404.09;;;16.48;86.02
74790;BME280;63318;52.406;13.416;2023-07-29T05:05:51;100403.55;;;16.53;86.01
74790;BME280;63318;52.406;13.416;2023-07-29T05:08:19;100398.33;;;16.57;86.18
74790;BME280;63318;52.406;13.416;2023-07-29T05:10:51;100397.91;;;16.62;86.05
74790;BME280;63318;52.406;13.416;2023-07-29T05:13:20;100397.54;;;16.65;85.99
74790;BME280;63318;52.406;13.416;2023-07-29T05:15:50;100394.00;;;16.70;86.17
74790;BME280;63318;52.406;13.416;2023-07-29T05:18:19;100391.15;;;16.75;86.05
74790;BME280;63318;52.406;13.416;2023-07-29T05:20:48;100391.73;;;16.84;86.25
74790;BME280;63318;52.406;13.416;2023-07-29T05:23:16;100390.27;;;16.94;86.35
74790;BME280;63318;52.406;13.416;2023-07-29T05:25:44;100385.42;;;17.05;86.57
74790;BME280;63318;52.406;13.416;2023-07-29T05:28:12;100382.77;;;17.16;86.65
74790;BME280;63318;52.406;13.416;2023-07-29T05:30:40;100385.55;;;17.25;86.77
74790;BME280;63318;52.406;13.416;2023-07-29T05:33:08;100396.14;;;17.33;86.44
74790;BME280;63318;52.406;13.416;2023-07-29T05:35:37;100394.31;;;17.41;86.54
74790;BME280;63318;52.406;13.416;2023-07-29T05:38:05;100395.73;;;17.47;86.48
74790;BME280;63318;52.406;13.416;2023-07-29T05:40:33;100391.71;;;17.54;86.53
74790;BME280;63318;52.406;13.416;2023-07-29T05:43:01;100397.93;;;17.62;86.60
74790;BME280;63318;52.406;13.416;2023-07-29T05:45:29;100398.98;;;17.72;86.65
74790;BME280;63318;52.406;13.416;2023-07-29T05:47:57;100396.25;;;17.86;86.60
74790;BME280;63318;52.406;13.416;2023-07-29T05:50:26;100393.80;;;18.02;86.36
74790;BME280;63318;52.406;13.416;2023-07-29T05:52:54;100391.53;;;18.16;86.18
74790;BME280;63318;52.406;13.416;2023-07-29T05:55:22;100389.66;;;18.29;86.36
74790;BME280;63318;52.406;13.416;2023-07-29T05:57:50;100386.77;;;18.42;86.09
74790;BME280;63318;52.406;13.416;2023-07-29T06:00:19;100379.05;;;18.55;85.99
74790;BME280;63318;52.406;13.416;2023-07-29T06:02:47;100378.85;;;18.66;86.00
74790;BME280;63318;52.406;13.416;2023-07-29T06:05:15;100375.41;;;18.80;85.93
74790;BME280;63318;52.406;13.416;2023-07-29T06:07:43;100368.69;;;18.94;85.74
74790;BME280;63318;52.406;13.416;2023-07-29T06:10:14;100367.90;;;19.10;85.44
74790;BME280;63318;52.406;13.416;2023-07-29T06:12:42;100365.78;;;19.33;85.19
74790;BME280;63318;52.406;13.416;2023-07-29T06:15:11;100359.12;;;19.57;85.40
74790;BME280;63318;52.406;13.416;2023-07-29T06:17:39;100359.83;;;19.73;84.83
74790;BME280;63318;52.406;13.416;2023-07-29T06:20:11;100361.03;;;19.80;84.58
74790;BME280;63318;52.406;13.416;2023-07-29T06:22:39;100355.06;;;19.96;84.38
74790;BME280;63318;52.406;13.416;2023-07-29T06:25:08;100350.50;;;20.12;84.00
74790;BME280;63318;52.406;13.416;2023-07-29T06:27:36;100348.64;;;20.34;83.94
74790;BME280;63318;52.406;13.416;2023-07-29T06:30:06;100348.17;;;20.59;83.61
74790;BME280;63318;52.406;13.416;2023-07-29T06:32:35;100348.42;;;20.88;83.46
74790;BME280;63318;52.406;13.416;2023-07-29T06:35:03;100355.67;;;21.18;83.20
74790;BME280;63318;52.406;13.416;2023-07-29T06:37:32;100356.58;;;21.47;82.72
74790;BME280;63318;52.406;13.416;2023-07-29T06:40:00;100355.78;;;21.73;82.14
74790;BME280;63318;52.406;13.416;2023-07-29T06:42:28;100357.05;;;21.98;81.54
74790;BME280;63318;52.406;13.416;2023-07-29T06:44:56;100360.80;;;22.22;80.86
74790;BME280;63318;52.406;13.416;2023-07-29T06:47:25;100356.53;;;22.43;79.96
74790;BME280;63318;52.406;13.416;2023-07-29T06:49:53;100360.34;;;22.65;79.47
74790;BME280;63318;52.406;13.416;2023-07-29T06:52:21;100369.46;;;22.90;78.96
74790;BME280;63318;52.406;13.416;2023-07-29T06:54:50;100371.89;;;23.09;78.82
74790;BME280;63318;52.406;13.416;2023-07-29T06:57:18;100374.46;;;23.18;77.93
74790;BME280;63318;52.406;13.416;2023-07-29T06:59:46;100379.05;;;23.23;77.64
74790;BME280;63318;52.406;13.416;2023-07-29T07:02:14;100378.36;;;23.34;77.06
74790;BME280;63318;52.406;13.416;2023-07-29T07:04:42;100380.92;;;23.42;76.77
74790;BME280;63318;52.406;13.416;2023-07-29T07:07:11;100377.63;;;23.50;76.83
74790;BME280;63318;52.406;13.416;2023-07-29T07:09:39;100374.69;;;23.64;76.71
74790;BME280;63318;52.406;13.416;2023-07-29T07:12:08;100381.02;;;23.79;76.40
74790;BME280;63318;52.406;13.416;2023-07-29T07:14:36;100378.34;;;23.93;76.01
74790;BME280;63318;52.406;13.416;2023-07-29T07:17:05;100376.97;;;24.04;75.31
74790;BME280;63318;52.406;13.416;2023-07-29T07:19:33;100372.66;;;24.22;75.29
74790;BME280;63318;52.406;13.416;2023-07-29T07:22:01;100367.38;;;24.42;74.56
74790;BME280;63318;52.406;13.416;2023-07-29T07:24:30;100370.51;;;24.53;74.31
74790;BME280;63318;52.406;13.416;2023-07-29T07:26:58;100375.61;;;24.56;73.53
74790;BME280;63318;52.406;13.416;2023-07-29T07:29:26;100372.77;;;24.53;73.31
74790;BME280;63318;52.406;13.416;2023-07-29T07:31:55;100374.23;;;24.56;73.00
74790;BME280;63318;52.406;13.416;2023-07-29T07:34:24;100374.02;;;24.67;73.04
74790;BME280;63318;52.406;13.416;2023-07-29T07:36:52;100366.31;;;24.78;73.00
74790;BME280;63318;52.406;13.416;2023-07-29T07:39:20;100366.69;;;24.85;72.29
74790;BME280;63318;52.406;13.416;2023-07-29T07:41:49;100360.77;;;25.01;72.42
74790;BME280;63318;52.406;13.416;2023-07-29T07:44:18;100362.06;;;25.15;72.34
74790;BME280;63318;52.406;13.416;2023-07-29T07:46:46;100364.87;;;25.27;71.76
74790;BME280;63318;52.406;13.416;2023-07-29T07:49:14;100361.71;;;25.39;71.69
74790;BME280;63318;52.406;13.416;2023-07-29T07:51:44;100356.41;;;25.43;71.16
74790;BME280;63318;52.406;13.416;2023-07-29T07:54:12;100349.11;;;25.47;70.56
74790;BME280;63318;52.406;13.416;2023-07-29T07:56:41;100347.56;;;25.42;70.10
74790;BME280;63318;52.406;13.416;2023-07-29T07:59:09;100350.22;;;25.36;69.85
74790;BME280;63318;52.406;13.416;2023-07-29T08:01:37;100351.99;;;25.31;69.48
74790;BME280;63318;52.406;13.416;2023-07-29T08:04:06;100352.77;;;25.28;70.21
74790;BME280;63318;52.406;13.416;2023-07-29T08:06:35;100353.97;;;25.22;69.59
74790;BME280;63318;52.406;13.416;2023-07-29T08:09:03;100349.88;;;25.20;69.75
74790;BME280;63318;52.406;13.416;2023-07-29T08:11:31;100343.48;;;25.20;69.73
74790;BME280;63318;52.406;13.416;2023-07-29T08:13:59;100341.75;;;25.19;69.53
74790;BME280;63318;52.406;13.416;2023-07-29T08:16:27;100349.23;;;25.19;69.63
74790;BME280;63318;52.406;13.416;2023-07-29T08:18:56;100350.02;;;25.18;69.57
74790;BME280;63318;52.406;13.416;2023-07-29T08:21:24;100347.29;;;25.15;68.96
74790;BME280;63318;52.406;13.416;2023-07-29T08:23:52;100339.20;;;25.18;69.26
74790;BME280;63318;52.406;13.416;2023-07-29T08:26:21;100338.61;;;25.26;69.08
74790;BME280;63318;52.406;13.416;2023-07-29T08:28:49;100335.48;;;25.43;69.22
74790;BME280;63318;52.406;13.416;2023-07-29T08:31:18;100335.98;;;25.61;68.91
74790;BME280;63318;52.406;13.416;2023-07-29T08:33:47;100333.73;;;25.69;68.47
74790;BME280;63318;52.406;13.416;2023-07-29T08:36:16;100329.27;;;25.70;67.93
74790;BME280;63318;52.406;13.416;2023-07-29T08:38:44;100323.85;;;25.66;67.53
74790;BME280;63318;52.406;13.416;2023-07-29T08:41:16;100318.90;;;25.67;67.62
74790;BME280;63318;52.406;13.416;2023-07-29T08:43:50;100318.45;;;25.70;67.69
74790;BME280;63318;52.406;13.416;2023-07-29T08:46:20;100318.66;;;25.79;67.76
74790;BME280;63318;52.406;13.416;2023-07-29T08:48:48;100317.73;;;25.89;67.37
74790;BME280;63318;52.406;13.416;2023-07-29T08:51:18;100316.84;;;26.03;66.98
74790;BME280;63318;52.406;13.416;2023-07-29T08:53:47;100315.95;;;26.15;66.71
74790;BME280;63318;52.406;13.416;2023-07-29T08:56:16;100316.41;;;26.27;66.63
74790;BME280;63318;52.406;13.416;2023-07-29T08:58:45;100317.02;;;26.37;66.39
74790;BME280;63318;52.406;13.416;2023-07-29T09:01:13;100314.48;;;26.43;65.58
74790;BME280;63318;52.406;13.416;2023-07-29T09:03:42;100314.15;;;26.50;65.09
74790;BME280;63318;52.406;13.416;2023-07-29T09:06:10;100311.05;;;26.52;65.29
74790;BME280;63318;52.406;13.416;2023-07-29T09:08:39;100310.14;;;26.49;65.39
74790;BME280;63318;52.406;13.416;2023-07-29T09:11:07;100307.41;;;26.44;65.11
74790;BME280;63318;52.406;13.416;2023-07-29T09:13:36;100312.39;;;26.38;64.64
74790;BME280;63318;52.406;13.416;2023-07-29T09:16:05;100311.43;;;26.32;65.10
74790;BME280;63318;52.406;13.416;2023-07-29T09:18:33;100309.50;;;26.26;64.63
74790;BME280;63318;52.406;13.416;2023-07-29T09:21:03;100304.35;;;26.24;64.70
74790;BME280;63318;52.406;13.416;2023-07-29T09:23:40;100302.72;;;26.32;64.87
74790;BME280;63318;52.406;13.416;2023-07-29T09:26:08;100296.79;;;26.41;64.76
74790;BME280;63318;52.406;13.416;2023-07-29T09:28:37;100299.17;;;26.52;65.11
74790;BME280;63318;52.406;13.416;2023-07-29T09:31:06;100297.15;;;26.69;64.85
74790;BME280;63318;52.406;13.416;2023-07-29T09:33:36;100292.80;;;26.79;64.51
74790;BME280;63318;52.406;13.416;2023-07-29T09:36:08;100290.61;;;26.82;64.16
74790;BME280;63318;52.406;13.416;2023-07-29T09:38:36;100288.49;;;26.82;64.07
74790;BME280;63318;52.406;13.416;2023-07-29T09:41:05;100286.86;;;26.81;63.15
74790;BME280;63318;52.406;13.416;2023-07-29T09:43:34;100283.11;;;26.81;63.75
74790;BME280;63318;52.406;13.416;2023-07-29T09:46:03;100281.66;;;26.84;63.83
74790;BME280;63318;52.406;13.416;2023-07-29T09:48:36;100279.02;;;26.89;64.00
74790;BME280;63318;52.406;13.416;2023-07-29T09:51:12;100277.07;;;26.91;63.48
74790;BME280;63318;52.406;13.416;2023-07-29T09:53:45;100273.35;;;26.92;63.54
74790;BME280;63318;52.406;13.416;2023-07-29T09:56:14;100265.21;;;26.95;62.92
74790;BME280;63318;52.406;13.416;2023-07-29T09:58:44;100261.09;;;27.00;63.10
74790;BME280;63318;52.406;13.416;2023-07-29T10:01:12;100260.11;;;27.10;63.25
74790;BME280;63318;52.406;13.416;2023-07-29T10:03:41;100262.88;;;27.23;63.12
74790;BME280;63318;52.406;13.416;2023-07-29T10:06:10;100265.38;;;27.42;62.71
74790;BME280;63318;52.406;13.416;2023-07-29T10:08:40;100261.33;;;27.60;62.85
74790;BME280;63318;52.406;13.416;2023-07-29T10:11:09;100262.19;;;27.68;61.81
74790;BME280;63318;52.406;13.416;2023-07-29T10:13:38;100255.02;;;27.74;61.73
74790;BME280;63318;52.406;13.416;2023-07-29T10:16:07;100251.02;;;27.74;61.28
74790;BME280;63318;52.406;13.416;2023-07-29T10:18:35;100246.83;;;27.68;60.99
74790;BME280;63318;52.406;13.416;2023-07-29T10:21:04;100244.11;;;27.60;61.19
74790;BME280;63318;52.406;13.416;2023-07-29T10:23:40;100242.40;;;27.62;61.69
74790;BME280;63318;52.406;13.416;2023-07-29T10:26:11;100237.14;;;27.68;61.27
74790;BME280;63318;52.406;13.416;2023-07-29T10:28:44;100235.61;;;27.76;61.46
74790;BME280;63318;52.406;13.416;2023-07-29T10:31:16;100229.94;;;27.87;61.45
74790;BME280;63318;52.406;13.416;2023-07-29T10:33:45;100223.27;;;27.94;60.71
74790;BME280;63318;52.406;13.416;2023-07-29T10:36:14;100223.27;;;27.95;60.16
74790;BME280;63318;52.406;13.416;2023-07-29T10:38:43;100220.23;;;27.92;59.16
74790;BME280;63318;52.406;13.416;2023-07-29T10:41:11;100226.04;;;27.92;59.03
74790;BME280;63318;52.406;13.416;2023-07-29T10:43:40;100220.24;;;27.92;59.65
74790;BME280;63318;52.406;13.416;2023-07-29T10:46:18;100214.36;;;27.90;59.15
74790;BME280;63318;52.406;13.416;2023-07-29T10:48:54;100205.05;;;27.86;58.68
74790;BME280;63318;52.406;13.416;2023-07-29T10:51:28;100192.23;;;27.84;58.89
74790;BME280;63318;52.406;13.416;2023-07-29T10:53:58;100183.98;;;27.81;57.93
74790;BME280;63318;52.406;13.416;2023-07-29T10:56:28;100186.83;;;27.78;58.28
74790;BME280;63318;52.406;13.416;2023-07-29T10:58:59;100186.76;;;27.77;58.57
74790;BME280;63318;52.406;13.416;2023-07-29T11:01:31;100188.95;;;27.80;58.14
74790;BME280;63318;52.406;13.416;2023-07-29T11:04:23;100188.95;;;27.78;57.54
74790;BME280;63318;52.406;13.416;2023-07-29T11:07:22;100191.48;;;27.75;57.76
74790;BME280;63318;52.406;13.416;2023-07-29T11:09:56;100177.98;;;27.61;57.45
74790;BME280;63318;52.406;13.416;2023-07-29T11:12:39;100177.92;;;27.45;57.43
74790;BME280;63318;52.406;13.416;2023-07-29T11:15:14;100190.52;;;27.29;57.82
74790;BME280;63318;52.406;13.416;2023-07-29T11:17:43;100229.34;;;27.05;58.67
74790;BME280;63318;52.406;13.416;2023-07-29T11:20:13;100278.70;;;26.79;59.82
74790;BME280;63318;52.406;13.416;2023-07-29T11:22:42;100264.48;;;26.50;60.59
74790;BME280;63318;52.406;13.416;2023-07-29T11:25:12;100255.23;;;26.14;61.31
74790;BME280;63318;52.406;13.416;2023-07-29T11:27:41;100247.27;;;25.81;62.18
74790;BME280;63318;52.406;13.416;2023-07-29T11:30:11;100244.83;;;25.48;62.74
74790;BME280;63318;52.406;13.416;2023-07-29T11:32:40;100257.91;;;25.20;64.11
74790;BME280;63318;52.406;13.416;2023-07-29T11:35:11;100250.79;;;24.99;64.58
74790;BME280;63318;52.406;13.416;2023-07-29T11:37:40;100240.36;;;24.82;65.49
74790;BME280;63318;52.406;13.416;2023-07-29T11:40:12;100244.32;;;24.68;66.20
74790;BME280;63318;52.406;13.416;2023-07-29T11:42:41;100232.85;;;24.57;66.73
74790;BME280;63318;52.406;13.416;2023-07-29T11:45:11;100220.45;;;24.53;67.58
74790;BME280;63318;52.406;13.416;2023-07-29T11:47:39;100218.95;;;24.51;67.88
74790;BME280;63318;52.406;13.416;2023-07-29T11:50:10;100220.25;;;24.51;68.62
74790;BME280;63318;52.406;13.416;2023-07-29T11:52:39;100213.09;;;24.49;68.45
74790;BME280;63318;52.406;13.416;2023-07-29T11:55:09;100211.92;;;24.47;68.20
74790;BME280;63318;52.406;13.416;2023-07-29T11:57:38;100207.55;;;24.43;68.45
74790;BME280;63318;52.406;13.416;2023-07-29T12:00:10;100214.83;;;24.37;68.68
74790;BME280;63318;52.406;13.416;2023-07-29T12:02:40;100218.55;;;24.32;68.96
74790;BME280;63318;52.406;13.416;2023-07-29T12:05:10;100215.77;;;24.26;69.56
74790;BME280;63318;52.406;13.416;2023-07-29T12:07:41;100209.83;;;24.21;69.43
74790;BME280;63318;52.406;13.416;2023-07-29T12:10:11;100211.08;;;24.12;69.41
74790;BME280;63318;52.406;13.416;2023-07-29T12:12:45;100213.05;;;24.06;70.12
74790;BME280;63318;52.406;13.416;2023-07-29T12:15:21;100211.11;;;23.99;70.25
74790;BME280;63318;52.406;13.416;2023-07-29T12:17:52;100216.17;;;23.93;70.24
74790;BME280;63318;52.406;13.416;2023-07-29T12:20:21;100219.65;;;23.87;70.58
74790;BME280;63318;52.406;13.416;2023-07-29T12:22:54;100225.07;;;23.79;70.51
74790;BME280;63318;52.406;13.416;2023-07-29T12:25:23;100234.35;;;23.69;70.69
74790;BME280;63318;52.406;13.416;2023-07-29T12:27:51;100239.02;;;23.60;70.66
74790;BME280;63318;52.406;13.416;2023-07-29T12:30:23;100239.19;;;23.52;70.94
74790;BME280;63318;52.406;13.416;2023-07-29T12:32:51;100245.12;;;23.45;71.27
74790;BME280;63318;52.406;13.416;2023-07-29T12:35:20;100243.78;;;23.39;71.60
74790;BME280;63318;52.406;13.416;2023-07-29T12:37:48;100237.31;;;23.33;71.75
74790;BME280;63318;52.406;13.416;2023-07-29T12:40:26;100234.48;;;23.27;71.90
74790;BME280;63318;52.406;13.416;2023-07-29T12:42:55;100223.67;;;23.25;72.18
74790;BME280;63318;52.406;13.416;2023-07-29T12:45:23;100218.34;;;23.25;72.51
74790;BME280;63318;52.406;13.416;2023-07-29T12:47:52;100213.53;;;23.28;72.58
74790;BME280;63318;52.406;13.416;2023-07-29T12:50:20;100209.85;;;23.33;72.96